Time;durP1;ratioP1;P1;durP2;ratioP2;P2;SDS_P1;SDS_P2;PMS_P1;PMS_P2;Temp;Humidity;BMP_temperature;BMP_pressure;BME280_temperature;BME280_humidity;BME280_pressure;Samples;Min_cycle;Max_cycle;Signal;HPM_P1;HPM_P2
2022/04/23 00:02:25;;;;;;;12.95;11.80;;;12.10;93.80;;;;;;5092383;28;20573;-64
2022/04/23 00:04:52;;;;;;;12.55;11.32;;;12.10;93.80;;;;;;5092772;28;20231;-65
2022/04/23 00:07:18;;;;;;;12.75;11.65;;;12.10;93.90;;;;;;5092761;28;20689;-63
2022/04/23 00:09:45;;;;;;;13.98;12.65;;;12.10;94.00;;;;;;5092976;28;20224;-66
2022/04/23 00:12:20;;;;;;;12.38;11.38;;;12.00;93.90;;;;;;5085765;28;20326;-64
2022/04/23 00:14:46;;;;;;;17.67;16.10;;;12.00;94.00;;;;;;5092749;28;20317;-64
2022/04/23 00:17:15;;;;;;;16.27;14.88;;;11.90;94.00;;;;;;5092801;28;20689;-65
2022/04/23 00:19:44;;;;;;;14.05;12.95;;;11.90;94.00;;;;;;5082134;28;20227;-64
2022/04/23 00:22:10;;;;;;;16.13;14.63;;;11.80;94.10;;;;;;5092133;28;20306;-64
2022/04/23 00:24:37;;;;;;;14.38;13.15;;;11.80;94.20;;;;;;5092757;28;20230;-64
2022/04/23 00:27:04;;;;;;;13.57;12.48;;;11.80;94.20;;;;;;5092595;28;20657;-64
2022/04/23 00:29:31;;;;;;;13.40;12.27;;;11.70;94.20;;;;;;5091768;28;20219;-65
2022/04/23 00:31:58;;;;;;;15.45;14.07;;;11.70;94.30;;;;;;5092381;28;20231;-65
2022/04/23 00:34:28;;;;;;;14.25;13.00;;;11.70;94.30;;;;;;5092364;28;20226;-65
2022/04/23 00:36:55;;;;;;;15.75;14.27;;;11.70;94.40;;;;;;5092723;28;20570;-65
2022/04/23 00:39:22;;;;;;;14.65;13.38;;;11.70;94.30;;;;;;5092742;28;20302;-65
2022/04/23 00:41:51;;;;;;;13.75;12.65;;;11.70;94.30;;;;;;5092736;28;20373;-65
2022/04/23 00:44:19;;;;;;;15.85;14.40;;;11.60;94.20;;;;;;5092371;28;20306;-65
2022/04/23 00:46:46;;;;;;;14.10;13.00;;;11.60;94.30;;;;;;5092676;28;20215;-64
2022/04/23 00:49:14;;;;;;;14.05;12.82;;;11.50;94.40;;;;;;5091600;28;20223;-65
2022/04/23 00:51:42;;;;;;;13.57;12.45;;;11.50;94.40;;;;;;5076296;28;20567;-65
2022/04/23 00:54:10;;;;;;;14.05;12.85;;;11.50;94.50;;;;;;5092180;28;20219;-65
2022/04/23 00:56:40;;;;;;;14.70;13.35;;;11.50;94.50;;;;;;5092351;28;20681;-64
2022/04/23 00:59:08;;;;;;;13.98;12.75;;;11.40;94.60;;;;;;5091661;28;20275;-65
2022/04/23 01:01:35;;;;;;;15.18;13.98;;;11.50;94.70;;;;;;5092392;28;20247;-65
2022/04/23 01:04:05;;;;;;;14.38;13.07;;;11.40;94.60;;;;;;5091775;28;20226;-65
2022/04/23 01:06:34;;;;;;;13.90;12.70;;;11.40;94.70;;;;;;5092595;28;20219;-64
2022/04/23 01:09:07;;;;;;;14.13;12.73;;;11.40;94.70;;;;;;5092276;28;20272;-65
2022/04/23 01:11:34;;;;;;;14.80;13.57;;;11.40;94.80;;;;;;5084098;28;20223;-63
2022/04/23 01:14:01;;;;;;;15.40;13.98;;;11.40;94.70;;;;;;5092111;28;20215;-64
2022/04/23 01:16:29;;;;;;;14.43;13.27;;;11.40;94.70;;;;;;5092479;28;20281;-63
2022/04/23 01:18:55;;;;;;;15.10;13.80;;;11.40;94.60;;;;;;5081668;28;20227;-64
2022/04/23 01:21:24;;;;;;;14.70;13.40;;;11.30;94.30;;;;;;5089472;28;20245;-65
2022/04/23 01:23:53;;;;;;;16.17;14.75;;;11.20;94.40;;;;;;5092219;28;20223;-63
2022/04/23 01:26:28;;;;;;;15.23;13.82;;;11.20;94.50;;;;;;5091630;28;20273;-65
2022/04/23 01:28:56;;;;;;;14.82;13.43;;;11.20;94.50;;;;;;5092370;28;20226;-64
2022/04/23 01:31:23;;;;;;;14.32;13.00;;;11.20;94.40;;;;;;5091760;28;20228;-63
2022/04/23 01:33:50;;;;;;;15.60;14.30;;;11.20;94.50;;;;;;5091943;28;20249;-63
2022/04/23 01:36:17;;;;;;;14.65;13.38;;;11.10;94.40;;;;;;5091987;28;20224;-65
2022/04/23 01:38:46;;;;;;;15.32;14.02;;;11.10;94.50;;;;;;5092239;28;20215;-64
2022/04/23 01:41:13;;;;;;;17.58;15.90;;;11.10;94.70;;;;;;5091737;28;20246;-64
2022/04/23 01:43:41;;;;;;;15.55;14.25;;;11.10;94.70;;;;;;5091998;28;20231;-64
2022/04/23 01:46:08;;;;;;;18.48;16.67;;;11.00;94.70;;;;;;5091663;28;20234;-65
2022/04/23 01:48:35;;;;;;;17.45;15.93;;;11.00;94.70;;;;;;5090165;28;20216;-64
2022/04/23 01:51:02;;;;;;;15.95;14.55;;;11.00;94.60;;;;;;5086032;28;20228;-66
2022/04/23 01:53:29;;;;;;;15.65;14.25;;;11.00;94.70;;;;;;5092060;28;20219;-65
2022/04/23 01:55:57;;;;;;;18.23;16.50;;;11.00;94.50;;;;;;5091635;28;20219;-65
2022/04/23 01:58:24;;;;;;;17.13;15.57;;;10.90;94.40;;;;;;5090715;28;20622;-65
2022/04/23 02:00:52;;;;;;;16.92;15.45;;;10.90;94.30;;;;;;5091644;28;20242;-65
2022/04/23 02:03:19;;;;;;;16.50;15.10;;;10.90;94.30;;;;;;5091573;28;20250;-65
2022/04/23 02:05:46;;;;;;;16.90;15.45;;;10.90;94.30;;;;;;5091812;28;20242;-64
2022/04/23 02:08:16;;;;;;;18.10;16.30;;;10.80;94.30;;;;;;5094411;28;20337;-63
2022/04/23 02:10:43;;;;;;;17.35;15.85;;;10.80;94.20;;;;;;5095672;28;20219;-64
2022/04/23 02:13:12;;;;;;;17.13;15.52;;;10.80;94.30;;;;;;5094918;27;20223;-63
2022/04/23 02:15:40;;;;;;;18.05;16.45;;;10.80;94.40;;;;;;5095459;27;20234;-65
2022/04/23 02:18:08;;;;;;;16.65;15.18;;;10.80;94.20;;;;;;5093744;28;20284;-65
2022/04/23 02:20:35;;;;;;;15.80;14.50;;;10.80;94.20;;;;;;5095261;28;20846;-65
2022/04/23 02:23:02;;;;;;;15.55;14.25;;;10.80;94.20;;;;;;5095020;28;20234;-65
2022/04/23 02:25:29;;;;;;;15.05;13.82;;;10.80;94.20;;;;;;5093804;28;20219;-65
2022/04/23 02:27:56;;;;;;;17.00;15.20;;;10.80;94.20;;;;;;5093662;28;20250;-65
2022/04/23 02:30:24;;;;;;;15.18;13.98;;;10.80;93.90;;;;;;5093279;28;20224;-63
2022/04/23 02:32:51;;;;;;;15.25;13.95;;;10.90;94.00;;;;;;5093655;28;20219;-63
2022/04/23 02:35:21;;;;;;;15.00;13.60;;;10.90;93.90;;;;;;5093403;28;20243;-64
2022/04/23 02:37:49;;;;;;;14.00;12.82;;;11.00;93.90;;;;;;5095436;28;20227;-64
2022/04/23 02:40:17;;;;;;;15.85;14.35;;;11.00;93.80;;;;;;5094859;28;20715;-65
2022/04/23 02:42:44;;;;;;;14.35;13.15;;;11.10;93.60;;;;;;5095014;28;20237;-63
2022/04/23 02:45:14;;;;;;;14.48;13.27;;;11.10;93.50;;;;;;5094585;28;20738;-64
2022/04/23 02:47:47;;;;;;;16.10;14.55;;;11.10;93.50;;;;;;5095130;28;20223;-64
2022/04/23 02:50:16;;;;;;;16.08;14.77;;;11.20;93.40;;;;;;5094456;28;20226;-64
2022/04/23 02:52:44;;;;;;;14.43;13.13;;;11.20;93.20;;;;;;5095047;28;20305;-63
2022/04/23 02:55:12;;;;;;;15.88;14.60;;;11.20;93.20;;;;;;5094683;28;20223;-64
2022/04/23 02:57:40;;;;;;;15.15;13.75;;;11.20;93.20;;;;;;5095124;28;20228;-65
2022/04/23 03:00:09;;;;;;;14.77;13.55;;;11.20;93.20;;;;;;5094408;28;20234;-64
2022/04/23 03:02:37;;;;;;;15.73;14.43;;;11.20;93.20;;;;;;5093586;28;20705;-64
2022/04/23 03:05:08;;;;;;;14.55;13.27;;;11.20;93.50;;;;;;5094898;28;20224;-65
2022/04/23 03:07:35;;;;;;;13.95;12.55;;;11.20;93.20;;;;;;5094400;28;20444;-65
2022/04/23 03:10:03;;;;;;;15.43;14.05;;;11.20;93.00;;;;;;5094655;28;20228;-65
2022/04/23 03:12:30;;;;;;;15.77;14.48;;;11.20;92.90;;;;;;5094182;28;20235;-64
2022/04/23 03:14:57;;;;;;;14.88;13.57;;;11.20;92.80;;;;;;5094468;28;20227;-63
2022/04/23 03:17:24;;;;;;;16.23;14.75;;;11.20;92.90;;;;;;5094114;28;20297;-63
2022/04/23 03:19:51;;;;;;;15.90;14.40;;;11.20;92.90;;;;;;5094558;28;20227;-63
2022/04/23 03:22:21;;;;;;;16.35;14.90;;;11.10;92.90;;;;;;5093857;28;20231;-65
2022/04/23 03:24:48;;;;;;;13.95;12.75;;;11.10;92.90;;;;;;5094454;28;20223;-64
2022/04/23 03:27:15;;;;;;;15.70;14.30;;;11.10;93.00;;;;;;5094127;28;20306;-65
2022/04/23 03:29:42;;;;;;;15.20;13.90;;;11.10;92.90;;;;;;5094320;28;20235;-64
2022/04/23 03:32:10;;;;;;;16.40;14.90;;;11.10;93.10;;;;;;5094272;28;20697;-65
2022/04/23 03:34:36;;;;;;;15.10;13.90;;;11.00;92.80;;;;;;5093999;28;20587;-65
2022/04/23 03:37:04;;;;;;;16.88;15.38;;;11.00;92.90;;;;;;5094190;28;20223;-63
2022/04/23 03:39:32;;;;;;;17.20;15.50;;;11.00;92.90;;;;;;5093890;28;20223;-63
2022/04/23 03:42:02;;;;;;;15.88;14.32;;;11.00;92.90;;;;;;5093939;28;20566;-64
2022/04/23 03:44:29;;;;;;;15.18;13.88;;;10.90;93.00;;;;;;5093565;28;20689;-65
2022/04/23 03:46:56;;;;;;;16.02;14.60;;;10.90;93.10;;;;;;5093962;28;20231;-65
2022/04/23 03:49:23;;;;;;;15.43;14.13;;;10.80;93.10;;;;;;5093610;28;20564;-64
2022/04/23 03:51:50;;;;;;;15.85;14.45;;;10.80;93.20;;;;;;5093940;28;20236;-65
2022/04/23 03:54:17;;;;;;;15.80;14.45;;;10.80;93.20;;;;;;5093592;28;20223;-63
2022/04/23 03:56:45;;;;;;;14.98;13.70;;;10.80;93.20;;;;;;5093917;28;20228;-64
2022/04/23 03:59:12;;;;;;;15.70;14.15;;;10.90;93.30;;;;;;5093626;28;20250;-65
2022/04/23 04:01:39;;;;;;;15.70;14.40;;;10.80;93.30;;;;;;5093216;28;20223;-65
2022/04/23 04:04:05;;;;;;;15.00;13.60;;;10.90;93.40;;;;;;5093625;28;20599;-64
2022/04/23 04:06:33;;;;;;;16.48;14.90;;;10.90;93.30;;;;;;5093370;28;20668;-64
2022/04/23 04:09:00;;;;;;;17.52;15.30;;;10.90;93.30;;;;;;5093674;28;20249;-64
2022/04/23 04:12:00;;;;;;;16.60;15.10;;;10.90;93.30;;;;;;5092907;28;20211;-65
2022/04/23 04:14:15;;;;;;;16.95;14.82;;;10.90;93.20;;;;;;5093394;28;20676;-65
2022/04/23 04:16:41;;;;;;;16.67;15.07;;;10.90;93.10;;;;;;5093155;28;20237;-64
2022/04/23 04:19:08;;;;;;;17.55;15.85;;;10.90;93.20;;;;;;5093563;28;20581;-64
2022/04/23 04:21:35;;;;;;;17.65;15.98;;;10.90;93.20;;;;;;5092936;28;20242;-64
2022/04/23 04:24:02;;;;;;;15.25;13.90;;;10.90;93.20;;;;;;5093325;28;20685;-65
2022/04/23 04:26:29;;;;;;;17.25;15.15;;;10.80;93.00;;;;;;5092905;28;20600;-65
2022/04/23 04:28:57;;;;;;;15.82;14.32;;;10.80;93.00;;;;;;5093046;28;20219;-64
2022/04/23 04:34:12;;;;;;;15.98;14.35;;;10.60;92.80;;;;;;5089539;28;20223;-64
2022/04/23 04:36:39;;;;;;;16.08;14.35;;;10.50;92.90;;;;;;5092829;28;20702;-65
2022/04/23 04:39:05;;;;;;;15.30;13.90;;;10.50;92.90;;;;;;5093143;28;20215;-64
2022/04/23 04:41:35;;;;;;;15.48;13.95;;;10.50;93.10;;;;;;5092608;28;20223;-64
2022/04/23 04:44:02;;;;;;;14.80;13.48;;;10.40;92.90;;;;;;5093014;28;20223;-64
2022/04/23 04:46:30;;;;;;;17.73;16.13;;;10.40;93.00;;;;;;5092571;28;20231;-65
2022/04/23 04:48:57;;;;;;;13.73;12.43;;;10.30;93.00;;;;;;5093308;28;20233;-64
2022/04/23 04:51:23;;;;;;;14.80;13.48;;;10.30;93.10;;;;;;5092404;28;20238;-65
2022/04/23 04:53:52;;;;;;;14.55;13.25;;;10.30;93.20;;;;;;5092965;28;20231;-64
2022/04/23 04:56:19;;;;;;;16.10;14.70;;;10.30;93.10;;;;;;5092888;28;20215;-64
2022/04/23 04:58:46;;;;;;;17.77;14.57;;;10.30;93.20;;;;;;5092422;28;20227;-65
2022/04/23 05:01:13;;;;;;;14.40;13.05;;;10.30;93.30;;;;;;5092602;28;20233;-66
2022/04/23 05:03:41;;;;;;;15.23;13.63;;;10.40;93.40;;;;;;5092313;28;20226;-65
2022/04/23 05:06:08;;;;;;;14.60;13.20;;;10.40;93.20;;;;;;5092924;28;20581;-65
2022/04/23 05:08:35;;;;;;;14.60;13.25;;;10.40;93.10;;;;;;5092432;28;20227;-64
2022/04/23 05:11:03;;;;;;;16.02;14.60;;;10.40;93.10;;;;;;5092633;28;20219;-64
2022/04/23 05:13:30;;;;;;;14.60;13.30;;;10.40;93.20;;;;;;5092220;28;20222;-65
2022/04/23 05:15:57;;;;;;;16.67;14.57;;;10.40;93.40;;;;;;5092884;28;20530;-65
2022/04/23 05:18:24;;;;;;;14.50;13.25;;;10.50;93.30;;;;;;5092275;28;20216;-65
2022/04/23 05:20:53;;;;;;;16.05;14.52;;;10.50;93.20;;;;;;5092614;28;20227;-64
2022/04/23 05:23:20;;;;;;;15.30;13.90;;;10.60;93.10;;;;;;5092703;28;20685;-64
2022/04/23 05:25:47;;;;;;;17.58;14.70;;;10.60;93.00;;;;;;5092069;28;20219;-65
2022/04/23 05:28:13;;;;;;;14.60;13.20;;;10.60;93.00;;;;;;5092595;28;20233;-65
2022/04/23 05:30:41;;;;;;;14.68;13.25;;;10.70;93.00;;;;;;5091921;28;20246;-64
2022/04/23 05:33:07;;;;;;;16.45;14.68;;;10.70;93.10;;;;;;5092552;28;20223;-65
2022/04/23 05:35:34;;;;;;;15.65;14.25;;;10.80;93.00;;;;;;5091957;28;20227;-65
2022/04/23 05:38:03;;;;;;;15.18;13.77;;;10.80;93.00;;;;;;5092688;28;20219;-65
2022/04/23 05:40:30;;;;;;;15.32;13.93;;;10.90;93.00;;;;;;5091846;28;20230;-64
2022/04/23 05:42:58;;;;;;;14.40;13.20;;;10.90;92.90;;;;;;5095183;28;20215;-65
2022/04/23 05:45:25;;;;;;;16.27;14.85;;;11.00;92.90;;;;;;5096171;28;20221;-64
2022/04/23 05:47:52;;;;;;;15.27;13.93;;;11.00;92.70;;;;;;5096146;28;20223;-65
2022/04/23 05:50:19;;;;;;;15.25;13.85;;;11.10;92.90;;;;;;5096185;28;20230;-65
2022/04/23 05:52:46;;;;;;;12.50;11.32;;;11.10;92.80;;;;;;5095742;28;20230;-66
2022/04/23 05:55:14;;;;;;;14.52;13.02;;;11.20;92.80;;;;;;5096153;28;20230;-65
2022/04/23 05:57:41;;;;;;;16.23;14.57;;;11.30;92.80;;;;;;5095537;28;20234;-65
2022/04/23 06:00:10;;;;;;;15.85;14.35;;;11.40;92.70;;;;;;5096040;28;20243;-64
2022/04/23 06:02:37;;;;;;;14.32;13.07;;;11.50;92.50;;;;;;5095500;28;20628;-65
2022/04/23 06:05:04;;;;;;;14.63;13.38;;;11.50;92.20;;;;;;5095858;28;20230;-64
2022/04/23 06:07:31;;;;;;;13.75;12.35;;;11.70;92.30;;;;;;5095676;28;20241;-65
2022/04/23 06:09:58;;;;;;;14.43;13.18;;;11.80;92.10;;;;;;5095779;28;20685;-64
2022/04/23 06:12:26;;;;;;;14.13;12.80;;;11.90;92.00;;;;;;5095797;28;20215;-65
2022/04/23 06:14:53;;;;;;;13.48;12.18;;;11.90;91.80;;;;;;5095479;28;20297;-65
2022/04/23 06:17:25;;;;;;;13.45;12.15;;;12.00;91.60;;;;;;5095758;28;20328;-64
2022/04/23 06:19:52;;;;;;;12.32;11.20;;;12.00;91.40;;;;;;5095152;28;20561;-65
2022/04/23 06:22:19;;;;;;;12.68;11.48;;;12.20;91.50;;;;;;5095738;28;20232;-64
2022/04/23 06:24:47;;;;;;;12.80;11.25;;;12.30;91.30;;;;;;5095038;28;20314;-63
2022/04/23 06:27:13;;;;;;;12.30;11.25;;;12.40;91.00;;;;;;5095858;28;20677;-65
2022/04/23 06:29:42;;;;;;;12.50;11.40;;;12.40;90.80;;;;;;5095134;28;20227;-65
2022/04/23 06:32:10;;;;;;;13.45;12.05;;;12.40;90.50;;;;;;5095340;28;20625;-63
2022/04/23 06:34:37;;;;;;;12.00;10.90;;;12.40;90.40;;;;;;5095148;28;20246;-65
2022/04/23 06:37:04;;;;;;;13.38;12.18;;;12.50;90.50;;;;;;5095378;28;20225;-64
2022/04/23 06:39:31;;;;;;;12.10;11.10;;;12.60;90.40;;;;;;5095007;28;20226;-64
2022/04/23 06:41:58;;;;;;;13.18;11.98;;;12.70;90.30;;;;;;5095095;28;20223;-64
2022/04/23 06:44:25;;;;;;;11.35;10.32;;;12.70;90.30;;;;;;5095160;28;20219;-65
2022/04/23 06:46:53;;;;;;;16.15;11.25;;;12.90;90.40;;;;;;5094510;28;20226;-64
2022/04/23 06:49:20;;;;;;;12.95;11.85;;;13.00;90.30;;;;;;5095236;28;20226;-65
2022/04/23 06:51:47;;;;;;;12.98;11.98;;;13.00;90.10;;;;;;5094495;28;20308;-65
2022/04/23 06:54:14;;;;;;;14.00;12.45;;;13.10;90.20;;;;;;5094752;28;20234;-64
2022/04/23 06:56:41;;;;;;;12.10;11.10;;;13.20;90.10;;;;;;5094641;28;20264;-65
2022/04/23 06:59:07;;;;;;;11.35;10.35;;;13.30;90.00;;;;;;5094776;28;20223;-65
2022/04/23 07:01:34;;;;;;;12.30;11.10;;;13.40;90.00;;;;;;5094357;28;20227;-64
2022/04/23 07:04:02;;;;;;;12.43;11.07;;;13.50;90.20;;;;;;5074843;28;20563;-64
2022/04/23 07:06:29;;;;;;;13.07;11.63;;;13.60;89.50;;;;;;5074587;28;20420;-64
2022/04/23 07:08:56;;;;;;;12.68;11.50;;;13.60;89.40;;;;;;5074020;28;20220;-63
2022/04/23 07:11:23;;;;;;;11.93;10.83;;;13.70;89.00;;;;;;5077307;28;20221;-64
2022/04/23 07:13:50;;;;;;;10.70;9.77;;;13.90;89.00;;;;;;5094149;28;20807;-64
2022/04/23 07:16:17;;;;;;;10.30;9.40;;;13.90;87.00;;;;;;5094646;28;20466;-63
2022/04/23 07:18:44;;;;;;;10.33;9.33;;;14.00;86.70;;;;;;5094059;28;20473;-63
2022/04/23 07:21:12;;;;;;;10.17;9.20;;;14.10;86.30;;;;;;5094425;28;20469;-64
2022/04/23 07:26:23;;;;;;;11.40;10.30;;;14.30;85.30;;;;;;5094478;28;20564;-64
2022/04/23 07:28:50;;;;;;;11.02;10.02;;;14.30;85.70;;;;;;5093949;28;20746;-65
2022/04/23 07:31:17;;;;;;;10.70;9.80;;;14.40;85.80;;;;;;5094218;28;20223;-64
2022/04/23 07:39:14;;;;;;;10.77;9.87;;;14.60;84.90;;;;;;5094689;28;20591;-65
2022/04/23 07:41:40;;;;;;;10.13;9.23;;;14.70;84.70;;;;;;5093690;28;20464;-65
2022/04/23 07:44:07;;;;;;;10.57;9.67;;;14.70;84.50;;;;;;5093825;28;20967;-65
2022/04/23 07:46:34;;;;;;;10.90;9.80;;;14.80;84.50;;;;;;5093676;28;20465;-65
2022/04/23 07:49:01;;;;;;;10.83;9.73;;;14.80;84.20;;;;;;5094073;28;20468;-65
2022/04/23 07:51:29;;;;;;;10.90;9.90;;;15.00;84.30;;;;;;5093464;28;20512;-64
2022/04/23 07:53:56;;;;;;;10.83;9.77;;;15.00;83.80;;;;;;5094067;28;20457;-65
2022/04/23 07:56:23;;;;;;;10.80;9.70;;;15.10;83.60;;;;;;5093232;28;20466;-65
2022/04/23 07:58:50;;;;;;;10.53;9.60;;;15.20;83.90;;;;;;5093759;28;20470;-64
2022/04/23 08:01:17;;;;;;;10.80;9.80;;;15.30;83.90;;;;;;5093607;28;20468;-64
2022/04/23 08:03:43;;;;;;;11.43;10.33;;;15.40;84.10;;;;;;5093129;28;20456;-65
2022/04/23 08:06:11;;;;;;;12.03;11.00;;;15.40;83.20;;;;;;5093274;28;20473;-64
2022/04/23 08:08:39;;;;;;;11.83;10.63;;;15.40;82.40;;;;;;5093265;28;20598;-64
2022/04/23 08:11:06;;;;;;;10.70;9.80;;;15.40;82.70;;;;;;5093504;28;20530;-65
2022/04/23 08:13:33;;;;;;;9.77;8.97;;;15.60;82.80;;;;;;5092963;28;20461;-64
2022/04/23 08:16:00;;;;;;;11.53;10.53;;;15.60;82.80;;;;;;5093577;28;20527;-65
2022/04/23 08:18:27;;;;;;;9.40;8.60;;;15.80;82.80;;;;;;5092958;28;20466;-65
2022/04/23 08:20:54;;;;;;;10.50;9.60;;;15.80;82.50;;;;;;5093486;28;20534;-64
2022/04/23 08:23:22;;;;;;;10.20;9.20;;;15.90;82.40;;;;;;5092912;28;20478;-64
2022/04/23 08:25:52;;;;;;;11.13;10.13;;;15.90;83.10;;;;;;5093199;28;20461;-64
2022/04/23 08:31:06;;;;;;;10.83;10.00;;;16.00;81.70;;;;;;5093282;28;20549;-64
2022/04/23 08:36:14;;;;;;;9.70;8.87;;;16.00;80.90;;;;;;5092586;28;20450;-63
2022/04/23 08:38:40;;;;;;;9.90;9.10;;;16.10;81.10;;;;;;5093181;28;20469;-64
2022/04/23 08:41:10;;;;;;;9.57;8.77;;;16.20;80.10;;;;;;5092697;28;20470;-65
2022/04/23 08:43:37;;;;;;;9.20;8.40;;;16.20;80.20;;;;;;5093189;28;20547;-63
2022/04/23 08:46:04;;;;;;;10.60;9.60;;;16.30;80.50;;;;;;5092659;28;20466;-64
2022/04/23 08:48:37;;;;;;;10.33;9.50;;;16.40;80.40;;;;;;5092820;28;20458;-64
2022/04/23 08:51:07;;;;;;;8.60;7.90;;;16.40;78.90;;;;;;5092598;28;20474;-65
2022/04/23 08:53:37;;;;;;;8.50;7.63;;;16.50;78.40;;;;;;5092909;28;20495;-65
2022/04/23 08:56:05;;;;;;;9.53;8.73;;;16.50;78.30;;;;;;5092635;28;20472;-65
2022/04/23 08:58:33;;;;;;;9.37;8.57;;;16.60;77.70;;;;;;5092832;28;20471;-65
2022/04/23 09:01:00;;;;;;;8.37;7.67;;;16.60;75.70;;;;;;5092612;28;20471;-65
2022/04/23 09:03:26;;;;;;;8.13;7.53;;;16.60;75.00;;;;;;5092475;28;20470;-66
2022/04/23 09:05:54;;;;;;;9.30;8.60;;;16.60;74.90;;;;;;5092754;28;20465;-65
2022/04/23 09:08:21;;;;;;;8.87;7.97;;;16.60;74.10;;;;;;5092486;28;20481;-64
2022/04/23 09:10:51;;;;;;;7.50;6.90;;;16.70;74.60;;;;;;5092777;28;20468;-65
2022/04/23 09:13:25;;;;;;;7.00;6.40;;;16.80;74.50;;;;;;5092187;28;20476;-66
2022/04/23 09:24:17;;;;;;;6.13;5.60;;;16.80;69.00;;;;;;5096461;28;20857;-65
2022/04/23 09:26:44;;;;;;;6.60;6.10;;;16.90;69.20;;;;;;5096757;28;20466;-64
2022/04/23 09:29:17;;;;;;;6.20;5.70;;;17.00;69.00;;;;;;5096275;28;20471;-64
2022/04/23 09:31:46;;;;;;;6.43;5.93;;;17.10;68.50;;;;;;5096570;28;20989;-64
2022/04/23 09:34:16;;;;;;;7.60;6.17;;;17.20;66.90;;;;;;5096263;28;20471;-63
2022/04/23 09:36:50;;;;;;;7.23;6.53;;;17.10;66.50;;;;;;5096569;28;20481;-64
2022/04/23 09:39:31;;;;;;;7.60;7.00;;;17.10;66.20;;;;;;5096089;28;20469;-65
2022/04/23 09:42:15;;;;;;;6.17;5.67;;;17.10;66.20;;;;;;5095999;28;20533;-63
2022/04/23 09:44:42;;;;;;;5.77;5.20;;;17.10;65.80;;;;;;5096425;28;20494;-64
2022/04/23 09:47:11;;;;;;;5.77;5.37;;;17.00;64.80;;;;;;5095870;28;20589;-63
2022/04/23 09:49:40;;;;;;;7.43;6.93;;;17.10;65.10;;;;;;5096263;28;20463;-64
2022/04/23 09:52:08;;;;;;;7.10;6.50;;;17.20;65.80;;;;;;5095810;28;20837;-64
2022/04/23 09:54:36;;;;;;;6.77;6.17;;;17.30;64.30;;;;;;5096343;28;20468;-65
2022/04/23 09:57:04;;;;;;;6.27;5.77;;;17.30;63.50;;;;;;5095680;28;20462;-65
2022/04/23 09:59:31;;;;;;;6.20;5.70;;;17.30;63.40;;;;;;5095944;28;20479;-65
2022/04/23 10:01:59;;;;;;;7.27;6.77;;;17.30;62.30;;;;;;5095578;28;20468;-64
2022/04/23 10:04:29;;;;;;;7.40;6.77;;;17.30;62.20;;;;;;5096150;28;20834;-64
2022/04/23 10:06:56;;;;;;;6.87;6.37;;;17.30;62.20;;;;;;5095570;28;20807;-65
2022/04/23 10:09:28;;;;;;;8.43;7.60;;;17.20;62.20;;;;;;5096057;28;20529;-65
2022/04/23 10:12:02;;;;;;;6.20;5.60;;;17.20;62.70;;;;;;5095840;28;20473;-65
2022/04/23 10:14:35;;;;;;;6.57;6.07;;;17.20;62.10;;;;;;5095547;28;21257;-63
2022/04/23 10:17:04;;;;;;;6.40;5.80;;;17.20;61.90;;;;;;5095728;28;20973;-63
2022/04/23 10:19:34;;;;;;;6.60;6.10;;;17.40;62.00;;;;;;5095610;28;21248;-66
2022/04/23 10:22:14;;;;;;;7.37;6.77;;;17.40;61.90;;;;;;5095473;28;21027;-64
2022/04/23 10:24:50;;;;;;;6.70;6.20;;;17.40;61.20;;;;;;5095353;28;20475;-65
2022/04/23 10:27:18;;;;;;;6.63;6.03;;;17.40;60.70;;;;;;5094309;28;20478;-65
2022/04/23 10:29:49;;;;;;;6.00;5.60;;;17.40;60.80;;;;;;5095552;28;20460;-65
2022/04/23 10:32:24;;;;;;;6.63;6.10;;;17.50;61.30;;;;;;5094930;28;20483;-65
2022/04/23 10:34:53;;;;;;;6.70;6.20;;;17.50;61.00;;;;;;5091314;28;20838;-65
2022/04/23 10:37:22;;;;;;;6.10;5.70;;;17.50;61.00;;;;;;5074368;28;20780;-65
2022/04/23 10:40:15;;;;;;;6.47;5.97;;;17.40;60.70;;;;;;5074861;28;20493;-65
2022/04/23 10:43:08;;;;;;;5.30;5.00;;;17.50;60.30;;;;;;5074321;28;20536;-65
2022/04/23 10:45:36;;;;;;;6.67;6.17;;;17.50;59.80;;;;;;5074108;28;20561;-64
2022/04/23 10:48:33;;;;;;;6.43;5.93;;;17.50;61.00;;;;;;5074794;28;20989;-64
2022/04/23 10:51:18;;;;;;;7.23;6.63;;;17.60;60.40;;;;;;4993560;28;20813;-64
2022/04/23 10:53:57;;;;;;;6.13;5.73;;;17.60;60.20;;;;;;5065998;28;20464;-63
2022/04/23 10:56:26;;;;;;;6.53;6.03;;;17.60;60.00;;;;;;5074767;28;20926;-64
2022/04/23 10:58:53;;;;;;;7.10;6.40;;;17.70;60.50;;;;;;5074567;28;20474;-64
2022/04/23 11:01:25;;;;;;;7.07;6.57;;;17.60;60.40;;;;;;5074126;28;20481;-64
2022/04/23 11:04:10;;;;;;;6.20;5.70;;;17.70;60.20;;;;;;5093224;28;20478;-63
2022/04/23 11:12:33;;;;;;;6.20;5.80;;;17.80;60.20;;;;;;5094104;28;20467;-64
2022/04/23 11:15:01;;;;;;;5.87;5.37;;;17.80;59.70;;;;;;5094593;28;20536;-64
2022/04/23 11:17:58;;;;;;;6.00;5.60;;;17.90;59.70;;;;;;5094190;28;20464;-63
2022/04/23 11:20:30;;;;;;;5.60;5.20;;;18.00;59.80;;;;;;5059743;28;20636;-64
2022/04/23 11:23:00;;;;;;;7.83;4.60;;;18.00;59.80;;;;;;5094465;28;20469;-64
2022/04/23 11:25:27;;;;;;;7.07;6.43;;;18.10;59.60;;;;;;5094138;28;21015;-65
2022/04/23 11:28:00;;;;;;;5.83;5.43;;;18.20;59.90;;;;;;5094523;28;21104;-65
2022/04/23 11:30:29;;;;;;;6.20;5.70;;;18.30;59.50;;;;;;5094001;28;20503;-64
2022/04/23 11:33:08;;;;;;;5.77;5.27;;;18.30;58.10;;;;;;5094152;28;21080;-64
2022/04/23 11:35:36;;;;;;;5.47;5.07;;;18.40;58.00;;;;;;5093839;28;20461;-64
2022/04/23 11:38:04;;;;;;;5.50;5.10;;;18.40;57.70;;;;;;5094387;28;20545;-63
2022/04/23 11:40:42;;;;;;;5.43;4.93;;;18.50;56.40;;;;;;5092765;28;20477;-64
2022/04/23 11:43:09;;;;;;;5.70;5.30;;;18.40;56.50;;;;;;5094340;28;20461;-65
2022/04/23 11:45:47;;;;;;;6.60;5.87;;;18.30;56.90;;;;;;5093600;28;20479;-66
2022/04/23 11:48:14;;;;;;;5.93;5.47;;;18.20;57.40;;;;;;5093565;28;20526;-65
2022/04/23 11:50:40;;;;;;;6.30;5.80;;;18.20;57.60;;;;;;5093331;28;20472;-65
2022/04/23 11:53:09;;;;;;;5.80;5.40;;;18.20;57.20;;;;;;5094140;28;20460;-65
2022/04/23 11:55:36;;;;;;;5.53;5.03;;;18.20;56.60;;;;;;5093689;28;20549;-64
2022/04/23 11:58:05;;;;;;;5.90;5.40;;;18.20;56.70;;;;;;5093608;28;20480;-64
2022/04/23 12:00:33;;;;;;;6.13;5.67;;;18.10;57.20;;;;;;5093465;28;20469;-65
2022/04/23 12:03:00;;;;;;;5.73;5.23;;;18.10;57.50;;;;;;5093782;28;20464;-64
2022/04/23 12:05:29;;;;;;;6.03;5.53;;;18.10;57.60;;;;;;5093209;28;20970;-65
2022/04/23 12:07:56;;;;;;;6.63;6.00;;;18.10;57.50;;;;;;5093982;28;20475;-65
2022/04/23 12:10:26;;;;;;;6.17;5.57;;;18.10;57.30;;;;;;5093559;28;20469;-65
2022/04/23 12:12:56;;;;;;;6.07;5.53;;;18.20;57.60;;;;;;5092968;28;20460;-64
2022/04/23 12:15:24;;;;;;;6.13;5.53;;;18.20;56.90;;;;;;5093783;28;20546;-65
2022/04/23 12:17:52;;;;;;;6.23;5.73;;;18.30;56.80;;;;;;5093338;28;20459;-65
2022/04/23 12:20:20;;;;;;;5.37;4.97;;;18.30;55.60;;;;;;5093397;28;20471;-65
2022/04/23 12:22:59;;;;;;;5.30;4.90;;;18.30;55.60;;;;;;5093108;28;20475;-65
2022/04/23 12:25:28;;;;;;;5.50;5.00;;;18.30;55.60;;;;;;5093514;28;20808;-64
2022/04/23 12:28:00;;;;;;;5.63;5.23;;;18.40;55.70;;;;;;5092549;28;20457;-63
2022/04/23 12:41:44;;;;;;;5.23;4.87;;;18.40;55.50;;;;;;5092887;28;21016;-65
2022/04/23 12:44:18;;;;;;;5.77;5.37;;;18.50;55.00;;;;;;5093249;28;20487;-65
2022/04/23 12:46:58;;;;;;;6.33;5.23;;;18.40;54.50;;;;;;5092587;28;20472;-64
2022/04/23 12:49:41;;;;;;;5.57;5.17;;;18.40;54.70;;;;;;5093094;28;20457;-64
2022/04/23 12:52:14;;;;;;;5.13;4.83;;;18.40;54.70;;;;;;5091018;28;20481;-64
2022/04/23 12:54:41;;;;;;;6.37;5.77;;;18.40;54.80;;;;;;5090982;28;20460;-65
2022/04/23 12:57:16;;;;;;;5.60;5.20;;;18.50;54.80;;;;;;5091442;28;20477;-65
2022/04/23 12:59:45;;;;;;;5.50;5.10;;;18.60;54.90;;;;;;5090847;28;20465;-63
2022/04/23 13:02:12;;;;;;;5.00;4.60;;;18.60;54.60;;;;;;5091052;28;20466;-63
2022/04/23 13:04:39;;;;;;;5.10;4.50;;;18.70;54.80;;;;;;5091099;28;20468;-64
2022/04/23 13:09:49;;;;;;;5.27;4.87;;;18.80;54.80;;;;;;5092741;28;20532;-65
2022/04/23 13:12:18;;;;;;;6.70;4.87;;;18.70;53.50;;;;;;5092727;28;20477;-63
2022/04/23 13:14:45;;;;;;;6.80;6.20;;;18.60;53.90;;;;;;5092317;28;20521;-63
2022/04/23 13:17:12;;;;;;;5.70;5.30;;;18.50;53.90;;;;;;5092802;28;20472;-64
2022/04/23 13:19:39;;;;;;;5.27;4.83;;;18.50;53.50;;;;;;5092222;28;20955;-65
2022/04/23 13:22:06;;;;;;;5.70;5.27;;;18.40;53.70;;;;;;5092735;28;20469;-64
2022/04/23 13:24:32;;;;;;;5.93;5.53;;;18.50;54.40;;;;;;5092190;28;20472;-64
2022/04/23 13:27:01;;;;;;;5.90;5.50;;;18.50;54.70;;;;;;5092626;28;20530;-64